Time;durP1;ratioP1;P1;durP2;ratioP2;P2;SDS_P1;SDS_P2;PMS_P1;PMS_P2;Temp;Humidity;BMP_temperature;BMP_pressure;BME280_temperature;BME280_humidity;BME280_pressure;Samples;Min_cycle;Max_cycle;Signal;HPM_P1;HPM_P2
2022/08/26 00:00:04;;;;;;;17.48;8.52;;;;;;;19.80;100.00;101348.38;5093234;28;20484;-74
2022/08/26 00:02:29;;;;;;;14.88;8.45;;;;;;;19.77;100.00;101355.13;5094334;28;20127;-73
2022/08/26 00:08:18;;;;;;;24.30;9.50;;;;;;;19.76;100.00;101352.69;5092464;28;20358;-74
2022/08/26 00:10:44;;;;;;;22.73;10.68;;;;;;;19.74;100.00;101361.09;5092295;28;20035;-72
2022/08/26 00:13:10;;;;;;;26.05;11.20;;;;;;;19.67;100.00;101348.84;5094979;28;20039;-74
2022/08/26 00:15:37;;;;;;;21.45;11.02;;;;;;;19.67;100.00;101349.66;5092024;28;20032;-74
2022/08/26 00:18:03;;;;;;;20.52;12.15;;;;;;;19.62;100.00;101359.63;5095066;28;20047;-74
2022/08/26 00:20:31;;;;;;;19.00;12.52;;;;;;;19.56;100.00;101364.22;5073821;28;20562;-74
2022/08/26 00:22:56;;;;;;;24.48;12.75;;;;;;;19.49;100.00;101356.28;5092156;28;20047;-74
2022/08/26 00:25:22;;;;;;;26.90;14.13;;;;;;;19.52;100.00;101363.09;5094920;28;20036;-74
2022/08/26 00:27:48;;;;;;;24.00;13.43;;;;;;;19.50;100.00;101360.63;5091819;28;20032;-74
2022/08/26 00:30:24;;;;;;;25.75;14.88;;;;;;;19.52;100.00;101373.94;5076779;28;20071;-74
2022/08/26 00:32:49;;;;;;;32.05;15.05;;;;;;;19.52;100.00;101357.66;5091616;28;20491;-74
2022/08/26 00:35:15;;;;;;;32.78;15.27;;;;;;;19.42;100.00;101352.97;5076823;28;20063;-73
2022/08/26 00:37:41;;;;;;;26.65;14.13;;;;;;;19.41;100.00;101359.50;5091641;28;20032;-74
2022/08/26 00:40:11;;;;;;;31.00;15.25;;;;;;;19.40;100.00;101365.16;5091665;28;20097;-73
2022/08/26 00:42:36;;;;;;;29.05;14.93;;;;;;;19.38;100.00;101364.63;5094731;28;20043;-74
2022/08/26 00:45:02;;;;;;;24.35;14.57;;;;;;;19.33;100.00;101376.22;5073464;28;20089;-73
2022/08/26 00:47:43;;;;;;;31.77;14.77;;;;;;;19.32;100.00;101374.59;5094612;28;20044;-74
2022/08/26 00:50:12;;;;;;;21.88;14.70;;;;;;;19.34;100.00;101375.13;5091546;28;20028;-74
2022/08/26 00:52:38;;;;;;;22.02;14.45;;;;;;;19.36;100.00;101372.97;5094224;28;20419;-74
2022/08/26 00:55:11;;;;;;;25.15;14.48;;;;;;;19.38;100.00;101381.72;5091484;28;20024;-75
2022/08/26 00:57:37;;;;;;;22.92;14.25;;;;;;;19.34;100.00;101368.91;5091447;28;20432;-73
2022/08/26 01:00:08;;;;;;;23.13;14.63;;;;;;;19.43;100.00;101368.19;5094299;28;20267;-74
2022/08/26 01:02:34;;;;;;;22.83;13.93;;;;;;;19.43;100.00;101373.59;5091400;28;20047;-74
2022/08/26 01:05:01;;;;;;;24.42;14.65;;;;;;;19.40;100.00;101360.56;5094535;28;20488;-73
2022/08/26 01:07:30;;;;;;;25.60;14.25;;;;;;;19.44;100.00;101371.72;5093540;28;20028;-74
2022/08/26 01:09:58;;;;;;;25.95;13.90;;;;;;;19.46;100.00;101381.22;5098027;28;20092;-74
2022/08/26 01:12:26;;;;;;;26.50;14.50;;;;;;;19.40;100.00;101371.41;5094775;28;20020;-74
2022/08/26 01:18:13;;;;;;;22.63;13.80;;;;;;;19.49;100.00;101372.56;5095010;28;20043;-73
2022/08/26 01:21:04;;;;;;;26.42;14.20;;;;;;;19.52;100.00;101373.94;5094719;28;20028;-73
2022/08/26 01:23:35;;;;;;;24.65;14.30;;;;;;;19.54;100.00;101374.53;5094651;28;20028;-74
2022/08/26 01:26:08;;;;;;;24.90;13.55;;;;;;;19.53;100.00;101374.75;5094604;28;20048;-73
2022/08/26 01:28:34;;;;;;;;;;;;;;;19.60;100.00;101367.22;5098138;28;20457;-74
2022/08/26 01:31:02;;;;;;;23.77;11.48;;;;;;;19.55;100.00;101368.00;5094631;28;20010;-74
2022/08/26 01:33:42;;;;;;;22.63;11.32;;;;;;;19.55;100.00;101361.78;5097429;28;20423;-73
2022/08/26 01:36:08;;;;;;;21.17;11.68;;;;;;;19.60;100.00;101361.78;5094406;28;20024;-74
2022/08/26 01:38:33;;;;;;;22.30;10.57;;;;;;;19.60;100.00;101359.09;5097459;28;20107;-74
2022/08/26 01:41:01;;;;;;;22.90;10.10;;;;;;;19.60;100.00;101368.03;5094357;28;20422;-73
2022/08/26 01:43:29;;;;;;;26.50;10.10;;;;;;;19.63;100.00;101370.22;5094386;28;20484;-73
2022/08/26 01:45:55;;;;;;;18.33;9.00;;;;;;;19.59;100.00;101360.16;5097280;28;20032;-74
2022/08/26 01:48:26;;;;;;;21.25;8.88;;;;;;;19.59;100.00;101371.03;5094272;28;20388;-74
2022/08/26 01:50:52;;;;;;;19.13;8.25;;;;;;;19.61;100.00;101383.25;5097198;28;20040;-73
2022/08/26 01:53:20;;;;;;;13.73;7.43;;;;;;;19.57;100.00;101381.31;5094154;28;20055;-73
2022/08/26 01:55:49;;;;;;;17.15;6.97;;;;;;;19.59;100.00;101371.03;5097200;28;20385;-74
2022/08/26 01:58:24;;;;;;;16.90;6.88;;;;;;;19.61;100.00;101363.44;5094078;28;20024;-74
2022/08/26 02:00:50;;;;;;;17.58;7.05;;;;;;;19.56;100.00;101366.94;5093990;28;20028;-74
2022/08/26 02:03:17;;;;;;;14.82;6.60;;;;;;;19.50;100.00;101365.25;5097357;28;20063;-73
2022/08/26 02:06:05;;;;;;;11.10;5.95;;;;;;;19.54;100.00;101373.69;5093960;28;20098;-73
2022/08/26 02:08:45;;;;;;;14.98;5.82;;;;;;;19.54;100.00;101374.53;5097015;28;20047;-74
2022/08/26 02:11:11;;;;;;;13.55;5.88;;;;;;;19.46;100.00;101367.66;5093962;28;20494;-74
2022/08/26 02:13:48;;;;;;;12.25;5.95;;;;;;;19.41;100.00;101367.63;5097022;28;20712;-73
2022/08/26 02:16:20;;;;;;;11.00;5.07;;;;;;;19.41;100.00;101370.34;5094214;28;20077;-74
2022/08/26 02:18:46;;;;;;;20.63;5.83;;;;;;;19.44;100.00;101369.00;5096346;28;20043;-73
2022/08/26 02:21:11;;;;;;;16.00;6.35;;;;;;;19.37;100.00;101371.94;5076344;28;20284;-74
2022/08/26 02:23:38;;;;;;;12.32;5.13;;;;;;;19.41;100.00;101375.75;5093995;28;20116;-74
2022/08/26 02:26:10;;;;;;;18.85;5.70;;;;;;;19.37;100.00;101381.94;5097023;28;20036;-73
2022/08/26 02:28:45;;;;;;;;;;;;;;;19.36;100.00;101386.53;5075943;28;20127;-73
2022/08/26 02:31:10;;;;;;;14.45;5.53;;;;;;;19.28;100.00;101388.91;5096859;28;19958;-74
2022/08/26 02:33:35;;;;;;;11.38;5.03;;;;;;;19.21;100.00;101389.16;5075490;28;20391;-74
2022/08/26 02:39:22;;;;;;;13.70;5.15;;;;;;;19.23;100.00;101395.13;5093518;28;20280;-74
2022/08/26 02:41:48;;;;;;;13.30;5.20;;;;;;;19.23;100.00;101408.69;5096111;28;20039;-74
2022/08/26 02:44:14;;;;;;;14.57;4.90;;;;;;;19.22;100.00;101401.63;5075539;28;20044;-74
2022/08/26 02:46:40;;;;;;;11.57;4.72;;;;;;;19.16;100.00;101398.06;5093318;28;20108;-74
2022/08/26 02:49:05;;;;;;;13.20;4.25;;;;;;;19.13;100.00;101392.34;5096450;28;20036;-74
2022/08/26 02:51:31;;;;;;;13.65;4.45;;;;;;;19.04;100.00;101400.09;5093273;28;20494;-74
2022/08/26 02:53:56;;;;;;;12.60;4.40;;;;;;;19.06;100.00;101394.41;5096212;28;20404;-74
2022/08/26 02:56:22;;;;;;;15.07;4.77;;;;;;;18.97;100.00;101398.69;5075065;28;20458;-74
2022/08/26 02:58:47;;;;;;;16.25;4.30;;;;;;;18.96;100.00;101388.91;5093575;28;20284;-74
2022/08/26 03:01:31;;;;;;;8.93;4.47;;;;;;;18.95;100.00;101404.34;5095517;28;20036;-74
2022/08/26 03:03:57;;;;;;;14.55;4.47;;;;;;;18.85;100.00;101388.81;5093145;28;20036;-74
2022/08/26 03:06:23;;;;;;;11.70;4.38;;;;;;;18.88;100.00;101395.63;5096166;28;20044;-74
2022/08/26 03:08:49;;;;;;;7.78;4.35;;;;;;;18.84;100.00;101395.31;5092966;28;20388;-74
2022/08/26 03:11:14;;;;;;;11.88;4.60;;;;;;;18.80;100.00;101394.19;5095976;28;20047;-73
2022/08/26 03:13:41;;;;;;;11.60;4.47;;;;;;;18.81;100.00;101395.00;5092808;28;20490;-74
2022/08/26 03:19:27;;;;;;;11.13;4.68;;;;;;;18.83;100.00;101388.25;5093112;28;20518;-74
2022/08/26 03:25:16;;;;;;;10.93;4.30;;;;;;;18.82;100.00;101397.47;5093115;28;20043;-74
2022/08/26 03:27:41;;;;;;;12.38;4.00;;;;;;;18.85;100.00;101393.41;5095093;28;20058;-74
2022/08/26 03:32:52;;;;;;;10.00;4.30;;;;;;;18.91;100.00;101402.41;5092940;28;20455;-75
2022/08/26 03:35:17;;;;;;;9.73;4.10;;;;;;;18.93;100.00;101395.66;5095653;28;20076;-74
2022/08/26 03:37:43;;;;;;;10.93;4.10;;;;;;;19.00;100.00;101409.00;5092556;28;20028;-73
2022/08/26 03:40:10;;;;;;;13.32;4.90;;;;;;;19.02;100.00;101404.13;5095481;28;20465;-74
2022/08/26 03:42:37;;;;;;;16.08;4.07;;;;;;;19.01;100.00;101399.78;5092445;28;20475;-74
2022/08/26 03:45:04;;;;;;;11.43;4.15;;;;;;;18.97;100.00;101395.97;5095080;28;20108;-74
2022/08/26 03:47:30;;;;;;;13.32;4.63;;;;;;;19.02;100.00;101398.72;5074302;28;20471;-74
2022/08/26 03:49:56;;;;;;;10.30;4.05;;;;;;;19.03;100.00;101403.06;5074208;28;20035;-74
2022/08/26 03:52:21;;;;;;;10.30;4.07;;;;;;;19.04;100.00;101400.09;5095445;28;20094;-74
2022/08/26 03:54:47;;;;;;;9.77;3.80;;;;;;;19.09;100.00;101393.94;5074018;28;20032;-74
2022/08/26 03:57:12;;;;;;;13.80;4.87;;;;;;;19.02;100.00;101401.44;5077322;28;20282;-74
2022/08/26 03:59:37;;;;;;;11.50;4.00;;;;;;;18.99;100.00;101402.75;5092156;28;20278;-74
2022/08/26 04:02:03;;;;;;;12.97;4.37;;;;;;;19.01;100.00;101408.75;5074517;28;20274;-74
2022/08/26 04:04:28;;;;;;;14.48;4.30;;;;;;;19.00;100.00;101407.09;5094665;28;20289;-74
2022/08/26 04:06:57;;;;;;;12.83;4.33;;;;;;;19.01;100.00;101410.63;5092120;28;20392;-74
2022/08/26 04:09:24;;;;;;;14.63;3.97;;;;;;;18.95;100.00;101408.94;5095019;28;20075;-74
2022/08/26 04:11:49;;;;;;;14.25;4.70;;;;;;;18.96;100.00;101402.47;5073743;28;20317;-74
2022/08/26 04:14:18;;;;;;;11.80;4.47;;;;;;;18.92;100.00;101406.75;5094947;28;20039;-73
2022/08/26 04:16:44;;;;;;;14.20;5.15;;;;;;;18.95;100.00;101406.25;5092074;28;20032;-74
2022/08/26 04:22:32;;;;;;;16.83;5.40;;;;;;;18.82;100.00;101391.22;5092185;28;20123;-74
2022/08/26 04:24:57;;;;;;;10.48;4.68;;;;;;;18.79;100.00;101405.25;5091835;28;20103;-74
2022/08/26 04:27:23;;;;;;;11.07;4.53;;;;;;;18.80;100.00;101398.78;5076966;28;20090;-74
2022/08/26 04:29:48;;;;;;;13.70;4.70;;;;;;;18.79;100.00;101403.38;5091768;28;20081;-74
2022/08/26 04:32:14;;;;;;;17.95;6.13;;;;;;;18.68;100.00;101382.66;5076929;28;20182;-74
2022/08/26 04:34:39;;;;;;;10.95;5.07;;;;;;;18.79;100.00;101410.66;5091664;28;20024;-74
2022/08/26 04:37:06;;;;;;;14.35;5.40;;;;;;;18.77;100.00;101401.97;5094654;28;20046;-74
2022/08/26 04:39:32;;;;;;;14.38;5.20;;;;;;;18.82;100.00;101397.47;5073455;28;20022;-74
2022/08/26 04:41:58;;;;;;;10.38;5.22;;;;;;;18.82;100.00;101400.16;5090373;28;20243;-75
2022/08/26 04:44:26;;;;;;;18.88;5.40;;;;;;;18.79;100.00;101403.38;5094804;28;20051;-73
2022/08/26 04:46:52;;;;;;;15.45;5.93;;;;;;;18.81;100.00;101403.13;5091645;28;20024;-74
2022/08/26 04:49:19;;;;;;;16.35;6.20;;;;;;;18.84;100.00;101408.03;5076643;28;20072;-73
2022/08/26 04:51:44;;;;;;;10.27;5.38;;;;;;;18.82;100.00;101408.31;5091493;28;20028;-74
2022/08/26 04:54:10;;;;;;;16.23;6.35;;;;;;;18.88;100.00;101412.69;5093089;28;20028;-73
2022/08/26 04:56:39;;;;;;;17.70;5.85;;;;;;;18.85;100.00;101415.91;5092595;28;20040;-74
2022/08/26 04:59:07;;;;;;;13.38;5.85;;;;;;;18.81;100.00;101408.56;5091140;28;20068;-74
2022/08/26 05:01:32;;;;;;;13.85;6.13;;;;;;;18.86;100.00;101417.56;5094366;28;20145;-74
2022/08/26 05:03:58;;;;;;;16.00;6.20;;;;;;;18.85;100.00;101412.38;5091459;28;20024;-73
2022/08/26 05:09:45;;;;;;;11.90;5.85;;;;;;;18.89;100.00;101418.94;5091632;28;20050;-74
2022/08/26 05:12:10;;;;;;;13.37;5.17;;;;;;;18.87;100.00;101410.25;5094274;28;20036;-74
2022/08/26 05:14:35;;;;;;;11.40;5.15;;;;;;;18.90;100.00;101414.31;5091084;28;20790;-74
2022/08/26 05:17:01;;;;;;;13.73;5.80;;;;;;;18.91;100.00;101422.19;5073921;28;20069;-73
2022/08/26 05:19:27;;;;;;;10.88;5.35;;;;;;;18.94;100.00;101426.28;5093248;28;20270;-74
2022/08/26 05:21:53;;;;;;;10.98;5.47;;;;;;;18.87;100.00;101410.25;5091341;28;20028;-74
2022/08/26 05:24:18;;;;;;;19.05;5.80;;;;;;;18.94;100.00;101416.28;5094088;28;20449;-74
2022/08/26 05:26:43;;;;;;;16.23;5.87;;;;;;;18.95;100.00;101417.09;5091136;28;20025;-73
2022/08/26 05:32:30;;;;;;;13.43;5.10;;;;;;;19.00;100.00;101420.66;5091215;28;20097;-74
2022/08/26 05:34:56;;;;;;;11.50;5.00;;;;;;;19.06;100.00;101416.09;5094073;28;20052;-73
2022/08/26 05:37:22;;;;;;;12.75;5.40;;;;;;;19.12;100.00;101417.81;5091360;28;20028;-74
2022/08/26 05:39:47;;;;;;;17.35;5.63;;;;;;;19.06;100.00;101424.22;5091091;28;20036;-73
2022/08/26 05:42:12;;;;;;;16.45;5.63;;;;;;;19.09;100.00;101424.56;5093973;28;20047;-73
2022/08/26 05:44:37;;;;;;;10.70;4.93;;;;;;;19.14;100.00;101430.03;5072715;28;20052;-75
2022/08/26 05:47:03;;;;;;;17.07;4.80;;;;;;;19.16;100.00;101435.19;5075792;28;20365;-74
2022/08/26 05:49:28;;;;;;;9.82;4.55;;;;;;;19.16;100.00;101435.19;5090745;28;20274;-74
2022/08/26 05:51:53;;;;;;;15.98;5.20;;;;;;;19.23;100.00;101424.97;5093770;28;20096;-75
2022/08/26 05:57:40;;;;;;;13.35;4.53;;;;;;;19.40;100.00;101449.25;5094157;28;20304;-74
2022/08/26 06:00:06;;;;;;;18.10;4.90;;;;;;;19.47;100.00;101449.84;5094052;28;20024;-74
2022/08/26 06:05:54;;;;;;;15.48;4.10;;;;;;;19.61;100.00;101458.41;5094520;28;20506;-74
2022/08/26 06:11:41;;;;;;;13.40;3.90;;;;;;;19.60;100.00;101465.72;5094384;28;20441;-74
2022/08/26 06:14:07;;;;;;;11.80;4.07;;;;;;;19.65;100.00;101465.75;5093768;28;20027;-74
2022/08/26 06:16:37;;;;;;;14.45;3.78;;;;;;;19.60;100.00;101462.19;5078939;28;20032;-74
2022/08/26 06:27:52;;;;;;;9.75;3.05;;;;;;;19.79;100.00;101475.09;5097089;28;20093;-74
2022/08/26 06:30:18;;;;;;;9.23;3.55;;;;;;;19.82;100.00;101473.78;5093647;28;20111;-74
2022/08/26 06:32:44;;;;;;;18.15;3.17;;;;;;;19.78;100.00;101480.81;5096524;28;20055;-74
2022/08/26 06:35:09;;;;;;;12.25;3.78;;;;;;;19.78;100.00;101475.38;5093659;28;20494;-74
2022/08/26 06:37:35;;;;;;;11.40;3.55;;;;;;;19.78;100.00;101481.63;5094076;28;20036;-75
2022/08/26 06:40:00;;;;;;;14.20;3.65;;;;;;;19.84;100.00;101478.94;5095989;28;20039;-75
2022/08/26 06:42:25;;;;;;;8.80;2.87;;;;;;;19.91;100.00;101485.78;5093409;28;20028;-74
2022/08/26 06:44:51;;;;;;;11.75;3.63;;;;;;;19.90;100.00;101483.31;5096444;28;20286;-74
2022/08/26 06:47:16;;;;;;;7.32;3.10;;;;;;;19.88;100.00;101477.34;5093371;28;20055;-73
2022/08/26 06:49:41;;;;;;;8.43;2.77;;;;;;;20.01;100.00;101491.28;5096401;28;20035;-75
2022/08/26 06:55:28;;;;;;;14.15;3.63;;;;;;;20.18;100.00;101484.88;5093268;28;20692;-74
2022/08/26 06:57:54;;;;;;;8.77;2.85;;;;;;;20.19;100.00;101487.31;5075157;28;20020;-75
2022/08/26 07:00:20;;;;;;;6.93;2.85;;;;;;;20.25;100.00;101493.63;5093153;28;20066;-74
2022/08/26 07:02:45;;;;;;;9.07;2.92;;;;;;;20.25;100.00;101489.00;5096204;28;20042;-74
2022/08/26 07:05:11;;;;;;;9.55;3.20;;;;;;;20.26;100.00;101496.06;5091993;28;20450;-74
2022/08/26 07:07:37;;;;;;;8.45;2.65;;;;;;;20.33;100.00;101493.13;5096026;28;20134;-74
2022/08/26 07:10:03;;;;;;;12.65;3.33;;;;;;;20.41;100.00;101493.47;5092974;28;20046;-74
2022/08/26 07:12:28;;;;;;;5.32;2.95;;;;;;;20.52;100.00;101486.16;5077917;28;20047;-74
2022/08/26 07:14:54;;;;;;;8.38;2.95;;;;;;;20.53;100.00;101482.41;5092938;28;20028;-74
2022/08/26 07:17:19;;;;;;;11.10;2.92;;;;;;;20.75;100.00;101490.34;5092884;28;20585;-74
2022/08/26 07:19:45;;;;;;;13.35;2.92;;;;;;;20.76;100.00;101485.72;5095987;28;20040;-75
2022/08/26 07:22:10;;;;;;;9.52;2.95;;;;;;;20.79;100.00;101493.34;5074767;28;20028;-74
2022/08/26 07:24:39;;;;;;;9.70;3.23;;;;;;;20.85;100.00;101486.88;5095859;28;20399;-74
2022/08/26 07:27:08;;;;;;;11.95;2.85;;;;;;;20.89;100.00;101494.22;5092769;28;20282;-74
2022/08/26 07:29:34;;;;;;;11.98;2.83;;;;;;;20.99;100.00;101496.97;5076230;28;20524;-73
2022/08/26 07:31:59;;;;;;;13.57;2.72;;;;;;;21.04;100.00;101488.00;5093956;28;20079;-74
2022/08/26 07:34:24;;;;;;;8.90;2.80;;;;;;;21.09;100.00;101484.47;5092498;28;20028;-73
2022/08/26 07:36:50;;;;;;;9.02;2.35;;;;;;;21.27;100.00;101503.88;5095651;28;20114;-74
2022/08/26 07:39:16;;;;;;;8.98;3.22;;;;;;;21.32;100.00;101501.16;5092514;28;20036;-74
2022/08/26 07:41:45;;;;;;;10.93;2.65;;;;;;;21.30;100.00;101497.88;5095565;28;20617;-74
2022/08/26 07:47:32;;;;;;;11.80;2.42;;;;;;;21.35;100.00;101507.97;5092754;28;20112;-75
2022/08/26 07:49:58;;;;;;;10.40;2.97;;;;;;;21.41;100.00;101508.81;5092388;28;20036;-74
2022/08/26 07:52:26;;;;;;;7.67;2.70;;;;;;;21.42;100.00;101513.97;5074578;28;20032;-74
2022/08/26 07:54:51;;;;;;;8.75;2.50;;;;;;;21.54;100.00;101519.16;5094329;28;20373;-73
2022/08/26 07:57:16;;;;;;;13.33;3.30;;;;;;;21.60;99.73;101513.44;5092372;28;20105;-74
2022/08/26 07:59:41;;;;;;;9.90;2.70;;;;;;;21.55;98.86;101516.16;5095329;28;20780;-73
2022/08/26 08:02:07;;;;;;;9.53;2.47;;;;;;;21.54;99.45;101511.81;5092156;28;20270;-74
2022/08/26 08:04:33;;;;;;;14.27;3.47;;;;;;;21.66;99.45;101514.25;5095175;28;20044;-73
2022/08/26 08:06:58;;;;;;;12.38;3.15;;;;;;;21.75;98.55;101520.81;5092057;28;20273;-75
2022/08/26 08:09:24;;;;;;;7.32;2.67;;;;;;;21.61;98.25;101522.41;5092130;28;20028;-74
2022/08/26 08:11:49;;;;;;;9.43;2.58;;;;;;;21.57;98.63;101522.16;5077231;28;20031;-74
2022/08/26 08:14:14;;;;;;;12.13;2.50;;;;;;;21.64;98.78;101524.59;5091944;28;20103;-73
2022/08/26 08:16:40;;;;;;;7.07;2.90;;;;;;;21.69;98.08;101521.09;5094758;28;20571;-73
2022/08/26 08:19:05;;;;;;;10.52;2.65;;;;;;;21.74;96.39;101523.81;5073913;28;20300;-75
2022/08/26 08:21:30;;;;;;;10.30;2.57;;;;;;;21.86;96.51;101527.06;5094454;28;20127;-74
2022/08/26 08:23:56;;;;;;;6.63;2.45;;;;;;;21.78;95.74;101525.72;5092351;28;20278;-74
2022/08/26 08:26:23;;;;;;;8.60;2.70;;;;;;;21.77;95.45;101531.44;5073671;28;20489;-75
2022/08/26 08:28:49;;;;;;;7.45;2.63;;;;;;;21.73;95.46;101527.63;5094822;28;20044;-73
2022/08/26 08:31:20;;;;;;;6.07;2.40;;;;;;;21.72;96.01;101534.97;5073559;28;20142;-74
2022/08/26 08:33:45;;;;;;;7.35;2.38;;;;;;;21.63;95.00;101533.84;5094546;28;20093;-74
2022/08/26 08:36:13;;;;;;;11.55;2.67;;;;;;;21.55;95.90;101535.22;5091746;28;20422;-74
2022/08/26 08:38:39;;;;;;;7.45;2.60;;;;;;;21.51;95.90;101527.84;5093056;28;20032;-74
2022/08/26 08:41:04;;;;;;;6.82;2.00;;;;;;;21.51;95.47;101533.31;5093277;28;20089;-74
2022/08/26 08:46:57;;;;;;;12.93;3.20;;;;;;;21.56;95.00;101525.97;5092100;28;20437;-74
2022/08/26 08:49:24;;;;;;;7.97;2.13;;;;;;;21.58;93.73;101521.06;5091562;28;20030;-74
2022/08/26 08:52:20;;;;;;;6.63;2.42;;;;;;;21.63;93.99;101526.50;5094624;28;20523;-74
2022/08/26 08:54:46;;;;;;;9.32;2.83;;;;;;;21.67;93.21;101520.50;5073413;28;20031;-73
2022/08/26 08:57:21;;;;;;;9.10;2.35;;;;;;;21.78;93.40;101531.16;5094493;28;20415;-74
2022/08/26 09:00:03;;;;;;;5.88;2.17;;;;;;;21.86;92.59;101532.50;5073207;28;20028;-75
2022/08/26 09:02:49;;;;;;;10.80;2.30;;;;;;;21.89;93.08;101521.88;5094427;28;20044;-74
2022/08/26 09:05:22;;;;;;;8.32;2.15;;;;;;;22.04;91.93;101531.19;5091274;28;20038;-73
2022/08/26 09:07:54;;;;;;;9.70;2.58;;;;;;;22.07;90.94;101530.63;5094351;28;20042;-74
2022/08/26 09:10:29;;;;;;;10.87;2.77;;;;;;;22.07;91.12;101527.91;5091301;28;20064;-74
2022/08/26 09:12:55;;;;;;;5.47;2.47;;;;;;;22.09;90.98;101545.59;5091166;28;20040;-74
2022/08/26 09:15:30;;;;;;;9.07;2.28;;;;;;;22.06;90.47;101539.91;5082996;28;20028;-73
2022/08/26 09:18:10;;;;;;;13.70;2.42;;;;;;;21.95;91.14;101534.41;5091124;28;20495;-74
2022/08/26 09:20:51;;;;;;;9.35;2.65;;;;;;;21.88;92.15;101535.78;5094377;28;20098;-74
2022/08/26 09:23:16;;;;;;;11.50;2.30;;;;;;;21.82;91.59;101537.69;5091165;28;20388;-74
2022/08/26 09:25:46;;;;;;;7.10;2.22;;;;;;;21.83;91.90;101543.94;5094046;28;20051;-74
2022/08/26 09:28:16;;;;;;;8.98;2.47;;;;;;;21.81;92.18;101533.31;5074719;28;20082;-74
2022/08/26 09:30:44;;;;;;;9.68;2.83;;;;;;;21.79;91.45;101537.41;5097927;28;20630;-74
2022/08/26 09:33:15;;;;;;;8.23;2.30;;;;;;;21.77;91.44;101551.31;5094597;28;20400;-74
2022/08/26 09:35:46;;;;;;;6.13;2.25;;;;;;;21.73;91.83;101549.41;5094570;28;20028;-74
2022/08/26 09:38:34;;;;;;;9.85;2.70;;;;;;;21.88;92.65;101546.66;5097728;28;20075;-73
2022/08/26 09:41:05;;;;;;;9.43;2.13;;;;;;;21.96;92.13;101549.66;5070923;28;20067;-73
2022/08/26 09:43:31;;;;;;;14.95;3.13;;;;;;;22.00;90.38;101544.50;5097826;28;20122;-74
2022/08/26 09:49:25;;;;;;;9.30;2.17;;;;;;;21.98;91.43;101562.22;5094695;28;20106;-75
2022/08/26 09:55:20;;;;;;;12.82;2.58;;;;;;;21.74;91.54;101551.84;5094530;28;20093;-75
2022/08/26 09:57:53;;;;;;;11.75;2.72;;;;;;;21.61;92.79;101553.19;5094249;28;20031;-74
2022/08/26 10:00:26;;;;;;;8.32;2.47;;;;;;;21.61;93.34;101557.81;5097218;28;20052;-73
2022/08/26 10:06:16;;;;;;;13.52;3.03;;;;;;;21.58;93.00;101558.34;5097134;28;20039;-74
2022/08/26 10:12:08;;;;;;;5.88;2.17;;;;;;;21.47;93.66;101559.44;5094002;28;20116;-75
2022/08/26 10:14:40;;;;;;;7.32;2.10;;;;;;;21.40;94.29;101550.72;5093908;28;20028;-73
2022/08/26 10:20:33;;;;;;;8.88;2.22;;;;;;;21.26;93.83;101562.09;5093797;28;20476;-74
2022/08/26 10:23:15;;;;;;;10.98;2.80;;;;;;;21.16;94.71;101556.59;5075766;28;20035;-72
2022/08/26 10:25:55;;;;;;;7.70;2.90;;;;;;;21.28;94.60;101557.19;5096829;28;20044;-73
2022/08/26 10:41:52;;;;;;;8.27;2.45;;;;;;;21.63;91.26;101551.00;5096937;28;20080;-73
2022/08/26 10:47:55;;;;;;;7.65;2.28;;;;;;;21.73;90.86;101552.13;5093888;28;20403;-72
2022/08/26 10:53:45;;;;;;;11.95;2.20;;;;;;;21.78;89.59;101554.84;5093498;28;20043;-73
2022/08/26 11:01:40;;;;;;;14.60;2.72;;;;;;;21.82;89.96;101550.47;5095713;28;20070;-73
2022/08/26 11:06:17;;;;;;;12.07;2.65;;;;;;;21.90;88.84;101558.09;5093502;28;20050;-76
2022/08/26 11:12:04;;;;;;;10.13;2.15;;;;;;;21.55;90.99;101564.34;5093322;28;20120;-73
2022/08/26 11:17:51;;;;;;;6.07;2.55;;;;;;;21.57;90.63;101564.88;5093393;28;20047;-73
2022/08/26 11:23:45;;;;;;;8.48;2.50;;;;;;;21.56;91.79;101561.34;5092907;28;20047;-72
2022/08/26 11:30:03;;;;;;;7.93;2.33;;;;;;;21.95;90.78;101561.63;5096188;28;20067;-73
2022/08/26 11:32:37;;;;;;;8.90;2.08;;;;;;;21.90;90.27;101556.19;5092811;28;20032;-73
2022/08/26 11:38:28;;;;;;;10.55;2.60;;;;;;;21.49;91.30;101554.53;5093323;28;20089;-74
2022/08/26 11:44:18;;;;;;;8.35;2.10;;;;;;;21.37;92.89;101557.47;5093026;28;20098;-74
2022/08/26 11:50:27;;;;;;;9.18;2.17;;;;;;;21.41;92.69;101560.50;5091803;28;20070;-74
2022/08/26 11:56:26;;;;;;;6.85;2.50;;;;;;;21.28;92.92;101562.63;5093136;28;20442;-75
2022/08/26 11:58:57;;;;;;;10.82;2.58;;;;;;;21.25;93.17;101562.34;5095614;28;20047;-74
2022/08/26 12:04:48;;;;;;;8.40;2.08;;;;;;;21.21;91.96;101553.06;5092930;28;20438;-75
2022/08/26 12:07:15;;;;;;;8.05;2.50;;;;;;;21.15;92.33;101548.72;5092524;28;20030;-75
2022/08/26 12:13:05;;;;;;;5.85;2.00;;;;;;;21.06;93.25;101561.97;5092433;28;20117;-74
2022/08/26 12:18:52;;;;;;;6.32;2.30;;;;;;;21.30;93.32;101559.66;5093277;28;20047;-75
2022/08/26 12:24:47;;;;;;;4.85;2.20;;;;;;;21.58;89.82;101555.63;5092132;28;20085;-76
2022/08/26 12:30:34;;;;;;;9.20;2.35;;;;;;;21.63;89.89;101563.78;5092120;28;20434;-74
2022/08/26 12:33:11;;;;;;;6.70;1.98;;;;;;;21.59;88.81;101559.97;5076663;28;20043;-75
2022/08/26 12:35:38;;;;;;;5.10;1.70;;;;;;;21.51;89.44;101558.63;5073636;28;20032;-74
2022/08/26 12:44:58;;;;;;;7.07;1.80;;;;;;;21.66;89.65;101565.97;5091736;28;20043;-73
2022/08/26 12:50:47;;;;;;;4.05;2.00;;;;;;;21.66;88.35;101568.69;5091802;28;20047;-74
2022/08/26 12:53:19;;;;;;;8.55;2.17;;;;;;;21.56;89.19;101579.56;5073261;28;20231;-73
2022/08/26 12:59:08;;;;;;;10.10;1.90;;;;;;;21.40;90.97;101567.84;5091936;28;20047;-72
2022/08/26 13:04:58;;;;;;;6.43;1.90;;;;;;;21.68;90.17;101569.25;5095004;28;20408;-73
2022/08/26 13:10:46;;;;;;;6.65;1.83;;;;;;;22.07;87.42;101572.31;5095225;28;20518;-71
2022/08/26 13:16:34;;;;;;;6.55;1.88;;;;;;;22.39;85.50;101561.09;5094856;28;20047;-74
2022/08/26 13:22:23;;;;;;;5.50;2.20;;;;;;;22.11;85.41;101567.94;5095167;28;20069;-75
2022/08/26 13:24:53;;;;;;;4.50;1.63;;;;;;;21.98;86.83;101562.22;5094718;28;20036;-74
2022/08/26 13:27:20;;;;;;;7.90;2.03;;;;;;;21.95;85.85;101558.91;5097823;28;20119;-76
2022/08/26 13:33:07;;;;;;;8.05;2.15;;;;;;;21.84;85.27;101545.56;5097687;28;20062;-76
2022/08/26 13:38:54;;;;;;;5.72;1.63;;;;;;;21.83;85.23;101539.31;5094843;28;20566;-77
2022/08/26 13:41:20;;;;;;;6.68;1.50;;;;;;;21.83;85.07;101552.13;5094420;28;20119;-79
2022/08/26 13:47:07;;;;;;;5.55;2.00;;;;;;;21.48;87.42;101548.28;5094608;28;20043;-73
2022/08/26 13:56:53;;;;;;;4.97;2.00;;;;;;;21.01;92.98;101551.91;5094599;28;20072;-75
2022/08/26 14:02:40;;;;;;;8.73;2.45;;;;;;;20.50;100.00;101548.13;5094456;28;20088;-75
2022/08/26 14:05:06;;;;;;;9.30;2.60;;;;;;;20.26;100.00;101552.31;5097132;28;20119;-73
2022/08/26 14:10:53;;;;;;;13.10;3.80;;;;;;;19.38;100.00;101541.75;5097498;28;20134;-73
2022/08/26 14:16:40;;;;;;;8.23;3.75;;;;;;;19.25;100.00;101536.69;5093964;28;20384;-74
2022/08/26 14:19:09;;;;;;;8.18;3.95;;;;;;;19.28;100.00;101543.50;5096959;28;20169;-74
2022/08/26 14:21:37;;;;;;;12.27;3.88;;;;;;;19.28;100.00;101538.06;5093848;28;20050;-74
2022/08/26 14:24:03;;;;;;;7.40;3.60;;;;;;;19.30;100.00;101533.22;5078880;28;20131;-73
2022/08/26 14:26:29;;;;;;;9.50;4.15;;;;;;;19.41;100.00;101527.66;5093857;28;20055;-74
2022/08/26 14:32:23;;;;;;;8.95;3.95;;;;;;;19.73;100.00;101522.28;5093763;28;20383;-75
2022/08/26 14:38:11;;;;;;;9.93;4.13;;;;;;;20.30;100.00;101518.09;5093686;28;20500;-75
2022/08/26 14:44:03;;;;;;;7.45;4.10;;;;;;;20.63;100.00;101517.75;5093778;28;20085;-74
2022/08/26 14:55:56;;;;;;;6.70;3.25;;;;;;;21.55;100.00;101518.06;5096601;28;20410;-74
2022/08/26 15:01:44;;;;;;;7.13;3.83;;;;;;;21.44;100.00;101513.72;5093758;28;20050;-74